Atalandi — SVBA — position and weather

sailwx.info

Track history (hours):
 
Tides and Currents Weather Stations Pressure Air Temp Water Temp Dewpoint Dewpoint Depression Visibility Wind Speed Wind Dir Waves Ship Positions

Atalandi

Last reported at 2016-Jul-25 01:23 UTC. Time now 2016-Jul-25 02:28 UTC.
Position N 55°12' E 011°15'.

Length 248 m; draft 10.5 m.

Type: Ship. MMSI: 240269000.

Date/timePositionNaut miles runAvg speedWind from/ knotsBaromVisibWave heightAir tempDewpointWater temp
2016-Jul-25 01:23N 55°12' E 011°15'0 0.0
2016-Jul-25 00:33N 55°12' E 011°15'1 1.0
2016-Jul-24 23:34N 55°13' E 011°13'9 9.4
2016-Jul-24 22:34N 55°20' E 011°02'1110.9
2016-Jul-24 21:34N 55°29' E 010°53'1111.3
2016-Jul-24 20:33N 55°40' E 010°46'1312.2
2016-Jul-24 19:31N 55°52' E 010°52'1212.2
2016-Jul-24 18:30N 56°02' E 011°05'1212.4
2016-Jul-24 17:33N 56°12' E 011°18'1613.0
2016-Jul-24 16:17N 56°26' E 011°32'1013.2
2016-Jul-24 15:33N 56°35' E 011°41'1313.1
2016-Jul-24 14:34N 56°47' E 011°50'1413.8
2016-Jul-24 13:34N 56°60' E 011°42'1413.5
2016-Jul-24 12:33N 57°13' E 011°34'1313.5
2016-Jul-24 11:34N 57°25' E 011°24'1212.2
2016-Jul-24 10:34N 57°31' E 011°04'1111.4
2016-Jul-24 09:33N 57°31' E 010°43'1 0.6
2016-Jul-24 08:34N 57°31' E 010°42'1 1.3
2016-Jul-24 07:29N 57°30' E 010°41'0 0.0
2016-Jul-24 04:32N 57°30' E 010°41'0 0.0
2016-Jul-24 03:08N 57°30' E 010°41'0 0.0
2016-Jul-24 01:23N 57°30' E 010°41'0 0.0
2016-Jul-24 00:32N 57°30' E 010°41'0 0.0
2016-Jul-23 23:26N 57°30' E 010°41'0 0.0
2016-Jul-23 04:26N 57°30' E 010°41'0 0.4
2016-Jul-23 03:33N 57°29' E 010°41'1 0.5
2016-Jul-23 02:33N 57°30' E 010°41'2 2.3
2016-Jul-23 01:33N 57°32' E 010°41'1 1.1
2016-Jul-23 00:33N 57°31' E 010°42'1 0.9
2016-Jul-22 23:33N 57°30' E 010°42'9 9.3
2016-Jul-22 22:33N 57°31' E 010°59'1212.3
2016-Jul-22 21:33N 57°30' E 011°22'1212.1
2016-Jul-22 20:33N 57°19' E 011°32'1211.9
2016-Jul-22 19:33N 57°08' E 011°39'1211.6
2016-Jul-22 18:33N 56°57' E 011°46'1211.7
2016-Jul-22 17:33N 56°46' E 011°53'1212.2
2016-Jul-22 16:33N 56°35' E 011°42'1212.3
2016-Jul-22 15:33N 56°24' E 011°31'1211.7
2016-Jul-22 14:33N 56°14' E 011°20'1512.2
2016-Jul-22 13:18N 56°01' E 011°06'912.1
2016-Jul-22 12:33N 55°55' E 010°55'1111.1
2016-Jul-22 11:32N 55°44' E 010°48'2812.1
2016-Jul-22 09:13N 55°17' E 011°03'7 9.9
2016-Jul-22 08:33N 55°11' E 011°03'1211.7
2016-Jul-22 07:33N 54°59' E 010°58'2110.7
2016-Jul-22 05:33N 54°38' E 010°55'1312.6
2016-Jul-22 04:33N 54°34' E 011°16'1313.1
2016-Jul-22 03:33N 54°29' E 011°36'1313.0
2016-Jul-22 02:33N 54°26' E 011°58'1010.4
2016-Jul-22 01:33N 54°31' E 012°14'1010.2
2016-Jul-22 00:33N 54°39' E 012°25'1110.7
2016-Jul-21 23:33N 54°45' E 012°40'1010.2
2016-Jul-21 22:33N 54°49' E 012°56'1211.9
2016-Jul-21 21:33N 54°54' E 013°15'1212.1
2016-Jul-21 20:33N 54°58' E 013°35'1212.2
2016-Jul-21 19:33N 55°02' E 013°55'1211.6
2016-Jul-21 18:33N 55°09' E 014°11'1212.3
2016-Jul-21 17:33N 55°19' E 014°24'1212.0
2016-Jul-21 16:33N 55°28' E 014°39'1212.1
2016-Jul-21 15:33N 55°33' E 014°58'1211.9
2016-Jul-21 14:33N 55°38' E 015°17'1212.2
2016-Jul-21 13:33N 55°41' E 015°38'1212.2
2016-Jul-21 12:33N 55°44' E 015°59'1212.1
2016-Jul-21 11:33N 55°47' E 016°19'1212.1
2016-Jul-21 10:33N 55°50' E 016°40'1212.0
2016-Jul-21 09:33N 55°53' E 017°01'1212.3
2016-Jul-21 08:33N 55°56' E 017°22'1212.2
2016-Jul-21 07:33N 56°00' E 017°43'1312.4
2016-Jul-21 06:28N 56°07' E 018°04'1112.4
2016-Jul-21 05:33N 56°13' E 018°21'1212.3
2016-Jul-21 04:33N 56°20' E 018°40'1212.1
2016-Jul-21 03:33N 56°29' E 018°52'1312.7
2016-Jul-21 02:33N 56°40' E 019°04'1412.6
2016-Jul-21 01:27N 56°53' E 019°16'1112.6
2016-Jul-21 00:33N 57°03' E 019°26'15212.4
2016-Jul-20 12:15N 59°15' E 021°50'912.2
2016-Jul-20 11:31N 59°20' E 022°04'1312.3
2016-Jul-20 10:28N 59°28' E 022°23'1511.9
2016-Jul-20 09:11N 59°34' E 022°51'812.1
2016-Jul-20 08:33N 59°36' E 023°06'1212.0
2016-Jul-20 07:33N 59°39' E 023°28'1211.9
2016-Jul-20 06:34N 59°42' E 023°51'1212.2
2016-Jul-20 05:33N 59°46' E 024°14'1312.2
2016-Jul-20 04:29N 59°49' E 024°40'1111.6
2016-Jul-20 03:32N 59°51' E 025°01'1411.9
2016-Jul-20 02:21N 59°54' E 025°29'1012.1
2016-Jul-20 01:33N 59°55' E 025°48'1212.3
2016-Jul-20 00:33N 59°58' E 026°11'1212.1
2016-Jul-19 23:34N 60°01' E 026°35'1211.9
2016-Jul-19 22:33N 59°60' E 026°58'1211.7
2016-Jul-19 21:33N 60°04' E 027°20'1212.3
2016-Jul-19 20:33N 60°11' E 027°41'1111.3
2016-Jul-19 19:33N 60°10' E 028°03'1211.7
2016-Jul-19 18:33N 60°05' E 028°24'10 9.7
2016-Jul-19 17:33N 59°57' E 028°35'1010.5
2016-Jul-19 16:33N 59°48' E 028°25'5 5.4
2016-Jul-19 15:33N 59°42' E 028°26'0 0.0
2016-Jul-19 14:33N 59°42' E 028°26'0 0.0
2016-Jul-19 13:33N 59°42' E 028°26'0 0.0
2016-Jul-19 12:33N 59°42' E 028°26'0 0.0
2016-Jul-19 11:24N 59°42' E 028°26'0 0.0
2016-Jul-19 10:24N 59°42' E 028°26'0 0.0
2016-Jul-19 09:21N 59°42' E 028°26'0 0.0
2016-Jul-19 08:27N 59°42' E 028°26'0 0.0
2016-Jul-19 07:27N 59°42' E 028°26'0 0.0
2016-Jul-19 04:30N 59°42' E 028°26'0 0.0
2016-Jul-19 03:33N 59°42' E 028°26'0 0.0
2016-Jul-19 02:33N 59°42' E 028°26'0 0.0
2016-Jul-19 01:33N 59°42' E 028°26'0 0.0
2016-Jul-19 00:33N 59°42' E 028°26'0 0.0
2016-Jul-18 23:33N 59°42' E 028°26'0 0.0
2016-Jul-18 22:33N 59°42' E 028°26'0 0.0
2016-Jul-18 21:21N 59°42' E 028°26'0 0.0
2016-Jul-18 20:24N 59°42' E 028°26'0 0.0
2016-Jul-18 19:27N 59°42' E 028°26'0 0.0
2016-Jul-18 18:27N 59°42' E 028°26'0 0.0
2016-Jul-18 17:33N 59°42' E 028°26'0 0.0
2016-Jul-18 16:30N 59°42' E 028°26'0 0.0
2016-Jul-18 15:30N 59°42' E 028°26'0 0.0
2016-Jul-18 14:33N 59°42' E 028°26'0 0.0
2016-Jul-18 13:33N 59°42' E 028°26'0 0.0
2016-Jul-18 12:33N 59°42' E 028°26'0 0.0
2016-Jul-18 11:33N 59°42' E 028°26'0 0.0
2016-Jul-18 10:33N 59°42' E 028°26'0 0.0
2016-Jul-18 09:33N 59°42' E 028°26'0 0.0
2016-Jul-18 08:33N 59°42' E 028°26'0 0.0
2016-Jul-18 07:24N 59°42' E 028°26'0 0.0
2016-Jul-18 06:24N 59°42' E 028°26'0 0.0
2016-Jul-18 05:27N 59°42' E 028°26'0 0.0
2016-Jul-18 04:27N 59°42' E 028°26'0 0.0
2016-Jul-18 03:30N 59°42' E 028°26'0 0.0
2016-Jul-18 02:30N 59°42' E 028°26'0 0.0
2016-Jul-18 01:30N 59°42' E 028°26'0 0.0
2016-Jul-18 00:30N 59°42' E 028°26'0 0.0
2016-Jul-17 23:33N 59°42' E 028°26'1 1.4
2016-Jul-17 22:33N 59°43' E 028°23'1010.3
2016-Jul-17 21:33N 59°53' E 028°29'6 5.5
2016-Jul-17 20:29N 59°55' E 028°40'0 0.1
2016-Jul-17 19:29N 59°55' E 028°40'0 0.0
2016-Jul-17 18:29N 59°55' E 028°40'0 0.0
2016-Jul-17 17:32N 59°55' E 028°40'0 0.0
2016-Jul-17 16:32N 59°55' E 028°40'0 0.0
2016-Jul-17 15:32N 59°55' E 028°40'0 0.0
2016-Jul-17 14:32N 59°55' E 028°40'0 0.1
2016-Jul-17 13:32N 59°55' E 028°40'0 0.2
2016-Jul-17 12:34N 59°55' E 028°40'6 6.1
2016-Jul-17 11:34N 60°00' E 028°33'1212.3
2016-Jul-17 10:34N 60°07' E 028°13'1413.4
2016-Jul-17 09:33N 60°11' E 027°47'1313.5
2016-Jul-17 08:33N 60°04' E 027°24'1313.1
2016-Jul-17 07:34N 59°58' E 027°01'1313.3
2016-Jul-17 06:34N 59°59' E 026°34'4213.6
2016-Jul-17 03:31N 59°49' E 025°14'1314.0
2016-Jul-17 02:33N 59°46' E 024°48'1413.8
2016-Jul-17 01:33N 59°42' E 024°21'1111.2
2016-Jul-17 00:33N 59°32' E 024°28'2 2.1
2016-Jul-16 23:33N 59°31' E 024°31'0 0.0
2016-Jul-16 22:33N 59°31' E 024°31'0 0.0
2016-Jul-16 21:33N 59°31' E 024°31'0 0.1
2016-Jul-16 20:33N 59°31' E 024°31'2 2.1
2016-Jul-16 19:33N 59°30' E 024°27'1311.5
2016-Jul-16 18:27N 59°29' E 024°02'1313.9
2016-Jul-16 17:29N 59°28' E 023°36'1713.7
2016-Jul-16 16:12N 59°26' E 023°02'32812.3
2016-Jul-15 13:33N 55°39' E 015°42'1313.3
2016-Jul-15 12:33N 55°34' E 015°20'1313.3
2016-Jul-15 11:33N 55°28' E 014°59'1313.2
2016-Jul-15 10:33N 55°23' E 014°38'1313.4
2016-Jul-15 09:33N 55°12' E 014°23'1313.4
2016-Jul-15 08:33N 55°02' E 014°08'1313.5
2016-Jul-15 07:33N 54°57' E 013°46'5413.5
2016-Jul-15 03:33N 54°37' E 012°19'1212.4
2016-Jul-15 02:33N 54°25' E 012°11'1313.4
2016-Jul-15 01:33N 54°25' E 011°48'  
Track history (hours):
 
Tides and Currents Weather Stations Pressure Air Temp Water Temp Dewpoint Dewpoint Depression Visibility Wind Speed Wind Dir Waves Ship Positions

Atalandi

Last reported at 2016-Jul-25 01:23 UTC. Time now 2016-Jul-25 02:28 UTC.
Position N 55°12' E 011°15'.

Length 248 m; draft 10.5 m.

Type: Ship. MMSI: 240269000.

Date/timePositionNaut miles runAvg speedWind from/ knotsBaromVisibWave heightAir tempDewpointWater temp
2016-Jul-25 01:23N 55°12' E 011°15'0 0.0
2016-Jul-25 00:33N 55°12' E 011°15'1 1.0
2016-Jul-24 23:34N 55°13' E 011°13'9 9.4
2016-Jul-24 22:34N 55°20' E 011°02'1110.9
2016-Jul-24 21:34N 55°29' E 010°53'1111.3
2016-Jul-24 20:33N 55°40' E 010°46'1312.2
2016-Jul-24 19:31N 55°52' E 010°52'1212.2
2016-Jul-24 18:30N 56°02' E 011°05'1212.4
2016-Jul-24 17:33N 56°12' E 011°18'1613.0
2016-Jul-24 16:17N 56°26' E 011°32'1013.2
2016-Jul-24 15:33N 56°35' E 011°41'1313.1
2016-Jul-24 14:34N 56°47' E 011°50'1413.8
2016-Jul-24 13:34N 56°60' E 011°42'1413.5
2016-Jul-24 12:33N 57°13' E 011°34'1313.5
2016-Jul-24 11:34N 57°25' E 011°24'1212.2
2016-Jul-24 10:34N 57°31' E 011°04'1111.4
2016-Jul-24 09:33N 57°31' E 010°43'1 0.6
2016-Jul-24 08:34N 57°31' E 010°42'1 1.3
2016-Jul-24 07:29N 57°30' E 010°41'0 0.0
2016-Jul-24 04:32N 57°30' E 010°41'0 0.0
2016-Jul-24 03:08N 57°30' E 010°41'0 0.0
2016-Jul-24 01:23N 57°30' E 010°41'0 0.0
2016-Jul-24 00:32N 57°30' E 010°41'0 0.0
2016-Jul-23 23:26N 57°30' E 010°41'0 0.0
2016-Jul-23 04:26N 57°30' E 010°41'0 0.4
2016-Jul-23 03:33N 57°29' E 010°41'1 0.5
2016-Jul-23 02:33N 57°30' E 010°41'2 2.3
2016-Jul-23 01:33N 57°32' E 010°41'1 1.1
2016-Jul-23 00:33N 57°31' E 010°42'1 0.9
2016-Jul-22 23:33N 57°30' E 010°42'9 9.3
2016-Jul-22 22:33N 57°31' E 010°59'1212.3
2016-Jul-22 21:33N 57°30' E 011°22'1212.1
2016-Jul-22 20:33N 57°19' E 011°32'1211.9
2016-Jul-22 19:33N 57°08' E 011°39'1211.6
2016-Jul-22 18:33N 56°57' E 011°46'1211.7
2016-Jul-22 17:33N 56°46' E 011°53'1212.2
2016-Jul-22 16:33N 56°35' E 011°42'1212.3
2016-Jul-22 15:33N 56°24' E 011°31'1211.7
2016-Jul-22 14:33N 56°14' E 011°20'1512.2
2016-Jul-22 13:18N 56°01' E 011°06'912.1
2016-Jul-22 12:33N 55°55' E 010°55'1111.1
2016-Jul-22 11:32N 55°44' E 010°48'2812.1
2016-Jul-22 09:13N 55°17' E 011°03'7 9.9
2016-Jul-22 08:33N 55°11' E 011°03'1211.7
2016-Jul-22 07:33N 54°59' E 010°58'2110.7
2016-Jul-22 05:33N 54°38' E 010°55'1312.6
2016-Jul-22 04:33N 54°34' E 011°16'1313.1
2016-Jul-22 03:33N 54°29' E 011°36'1313.0
2016-Jul-22 02:33N 54°26' E 011°58'1010.4
2016-Jul-22 01:33N 54°31' E 012°14'1010.2
2016-Jul-22 00:33N 54°39' E 012°25'1110.7
2016-Jul-21 23:33N 54°45' E 012°40'1010.2
2016-Jul-21 22:33N 54°49' E 012°56'1211.9
2016-Jul-21 21:33N 54°54' E 013°15'1212.1
2016-Jul-21 20:33N 54°58' E 013°35'1212.2
2016-Jul-21 19:33N 55°02' E 013°55'1211.6
2016-Jul-21 18:33N 55°09' E 014°11'1212.3
2016-Jul-21 17:33N 55°19' E 014°24'1212.0
2016-Jul-21 16:33N 55°28' E 014°39'1212.1
2016-Jul-21 15:33N 55°33' E 014°58'1211.9
2016-Jul-21 14:33N 55°38' E 015°17'1212.2
2016-Jul-21 13:33N 55°41' E 015°38'1212.2
2016-Jul-21 12:33N 55°44' E 015°59'1212.1
2016-Jul-21 11:33N 55°47' E 016°19'1212.1
2016-Jul-21 10:33N 55°50' E 016°40'1212.0
2016-Jul-21 09:33N 55°53' E 017°01'1212.3
2016-Jul-21 08:33N 55°56' E 017°22'1212.2
2016-Jul-21 07:33N 56°00' E 017°43'1312.4
2016-Jul-21 06:28N 56°07' E 018°04'1112.4
2016-Jul-21 05:33N 56°13' E 018°21'1212.3
2016-Jul-21 04:33N 56°20' E 018°40'1212.1
2016-Jul-21 03:33N 56°29' E 018°52'1312.7
2016-Jul-21 02:33N 56°40' E 019°04'1412.6
2016-Jul-21 01:27N 56°53' E 019°16'1112.6
2016-Jul-21 00:33N 57°03' E 019°26'15212.4
2016-Jul-20 12:15N 59°15' E 021°50'912.2
2016-Jul-20 11:31N 59°20' E 022°04'1312.3
2016-Jul-20 10:28N 59°28' E 022°23'1511.9
2016-Jul-20 09:11N 59°34' E 022°51'812.1
2016-Jul-20 08:33N 59°36' E 023°06'1212.0
2016-Jul-20 07:33N 59°39' E 023°28'1211.9
2016-Jul-20 06:34N 59°42' E 023°51'1212.2
2016-Jul-20 05:33N 59°46' E 024°14'1312.2
2016-Jul-20 04:29N 59°49' E 024°40'1111.6
2016-Jul-20 03:32N 59°51' E 025°01'1411.9
2016-Jul-20 02:21N 59°54' E 025°29'1012.1
2016-Jul-20 01:33N 59°55' E 025°48'1212.3
2016-Jul-20 00:33N 59°58' E 026°11'1212.1
2016-Jul-19 23:34N 60°01' E 026°35'1211.9
2016-Jul-19 22:33N 59°60' E 026°58'1211.7
2016-Jul-19 21:33N 60°04' E 027°20'1212.3
2016-Jul-19 20:33N 60°11' E 027°41'1111.3
2016-Jul-19 19:33N 60°10' E 028°03'1211.7
2016-Jul-19 18:33N 60°05' E 028°24'10 9.7
2016-Jul-19 17:33N 59°57' E 028°35'1010.5
2016-Jul-19 16:33N 59°48' E 028°25'5 5.4
2016-Jul-19 15:33N 59°42' E 028°26'0 0.0
2016-Jul-19 14:33N 59°42' E 028°26'0 0.0
2016-Jul-19 13:33N 59°42' E 028°26'0 0.0
2016-Jul-19 12:33N 59°42' E 028°26'0 0.0
2016-Jul-19 11:24N 59°42' E 028°26'0 0.0
2016-Jul-19 10:24N 59°42' E 028°26'0 0.0
2016-Jul-19 09:21N 59°42' E 028°26'0 0.0
2016-Jul-19 08:27N 59°42' E 028°26'0 0.0
2016-Jul-19 07:27N 59°42' E 028°26'0 0.0
2016-Jul-19 04:30N 59°42' E 028°26'0 0.0
2016-Jul-19 03:33N 59°42' E 028°26'0 0.0
2016-Jul-19 02:33N 59°42' E 028°26'0 0.0
2016-Jul-19 01:33N 59°42' E 028°26'0 0.0
2016-Jul-19 00:33N 59°42' E 028°26'0 0.0
2016-Jul-18 23:33N 59°42' E 028°26'0 0.0
2016-Jul-18 22:33N 59°42' E 028°26'0 0.0
2016-Jul-18 21:21N 59°42' E 028°26'0 0.0
2016-Jul-18 20:24N 59°42' E 028°26'0 0.0
2016-Jul-18 19:27N 59°42' E 028°26'0 0.0
2016-Jul-18 18:27N 59°42' E 028°26'0 0.0
2016-Jul-18 17:33N 59°42' E 028°26'0 0.0
2016-Jul-18 16:30N 59°42' E 028°26'0 0.0
2016-Jul-18 15:30N 59°42' E 028°26'0 0.0
2016-Jul-18 14:33N 59°42' E 028°26'0 0.0
2016-Jul-18 13:33N 59°42' E 028°26'0 0.0
2016-Jul-18 12:33N 59°42' E 028°26'0 0.0
2016-Jul-18 11:33N 59°42' E 028°26'0 0.0
2016-Jul-18 10:33N 59°42' E 028°26'0 0.0
2016-Jul-18 09:33N 59°42' E 028°26'0 0.0
2016-Jul-18 08:33N 59°42' E 028°26'0 0.0
2016-Jul-18 07:24N 59°42' E 028°26'0 0.0
2016-Jul-18 06:24N 59°42' E 028°26'0 0.0
2016-Jul-18 05:27N 59°42' E 028°26'0 0.0
2016-Jul-18 04:27N 59°42' E 028°26'0 0.0
2016-Jul-18 03:30N 59°42' E 028°26'0 0.0
2016-Jul-18 02:30N 59°42' E 028°26'0 0.0
2016-Jul-18 01:30N 59°42' E 028°26'0 0.0
2016-Jul-18 00:30N 59°42' E 028°26'0 0.0
2016-Jul-17 23:33N 59°42' E 028°26'1 1.4
2016-Jul-17 22:33N 59°43' E 028°23'1010.3
2016-Jul-17 21:33N 59°53' E 028°29'6 5.5
2016-Jul-17 20:29N 59°55' E 028°40'0 0.1
2016-Jul-17 19:29N 59°55' E 028°40'0 0.0
2016-Jul-17 18:29N 59°55' E 028°40'0 0.0
2016-Jul-17 17:32N 59°55' E 028°40'0 0.0
2016-Jul-17 16:32N 59°55' E 028°40'0 0.0
2016-Jul-17 15:32N 59°55' E 028°40'0 0.0
2016-Jul-17 14:32N 59°55' E 028°40'0 0.1
2016-Jul-17 13:32N 59°55' E 028°40'0 0.2
2016-Jul-17 12:34N 59°55' E 028°40'6 6.1
2016-Jul-17 11:34N 60°00' E 028°33'1212.3
2016-Jul-17 10:34N 60°07' E 028°13'1413.4
2016-Jul-17 09:33N 60°11' E 027°47'1313.5
2016-Jul-17 08:33N 60°04' E 027°24'1313.1
2016-Jul-17 07:34N 59°58' E 027°01'1313.3
2016-Jul-17 06:34N 59°59' E 026°34'4213.6
2016-Jul-17 03:31N 59°49' E 025°14'1314.0
2016-Jul-17 02:33N 59°46' E 024°48'1413.8
2016-Jul-17 01:33N 59°42' E 024°21'1111.2
2016-Jul-17 00:33N 59°32' E 024°28'2 2.1
2016-Jul-16 23:33N 59°31' E 024°31'0 0.0
2016-Jul-16 22:33N 59°31' E 024°31'0 0.0
2016-Jul-16 21:33N 59°31' E 024°31'0 0.1
2016-Jul-16 20:33N 59°31' E 024°31'2 2.1
2016-Jul-16 19:33N 59°30' E 024°27'1311.5
2016-Jul-16 18:27N 59°29' E 024°02'1313.9
2016-Jul-16 17:29N 59°28' E 023°36'1713.7
2016-Jul-16 16:12N 59°26' E 023°02'32812.3
2016-Jul-15 13:33N 55°39' E 015°42'1313.3
2016-Jul-15 12:33N 55°34' E 015°20'1313.3
2016-Jul-15 11:33N 55°28' E 014°59'1313.2
2016-Jul-15 10:33N 55°23' E 014°38'1313.4
2016-Jul-15 09:33N 55°12' E 014°23'1313.4
2016-Jul-15 08:33N 55°02' E 014°08'1313.5
2016-Jul-15 07:33N 54°57' E 013°46'5413.5
2016-Jul-15 03:33N 54°37' E 012°19'1212.4
2016-Jul-15 02:33N 54°25' E 012°11'1313.4
2016-Jul-15 01:33N 54°25' E 011°48'  

Dump ship's entire track history